createdAt,value
2019-03-06T00:00:07.895Z,99948.46
2019-03-06T00:02:44.863Z,99949.91
2019-03-06T00:05:15.477Z,99946.94
2019-03-06T00:07:45.894Z,99952.10
2019-03-06T00:10:28.240Z,99955.48
2019-03-06T00:13:01.328Z,99960.17
2019-03-06T00:15:32.024Z,99957.77
2019-03-06T00:18:02.903Z,99955.55
2019-03-06T00:20:33.313Z,99959.39
2019-03-06T00:23:04.203Z,99961.51
2019-03-06T00:25:34.632Z,99956.73
2019-03-06T00:28:05.142Z,99961.03
2019-03-06T00:30:36.210Z,99963.39
2019-03-06T00:33:06.766Z,99967.61
2019-03-06T00:35:43.203Z,99970.91
2019-03-06T00:38:13.842Z,99962.91
2019-03-06T00:40:52.942Z,99965.50
2019-03-06T00:43:27.107Z,99962.48
2019-03-06T00:45:57.583Z,99961.08
2019-03-06T00:48:29.383Z,99967.19
2019-03-06T00:51:00.057Z,99965.78
2019-03-06T00:53:31.074Z,99962.61
2019-03-06T00:56:01.758Z,99967.53
2019-03-06T00:58:34.074Z,99963.73
2019-03-06T01:01:04.441Z,99963.66
2019-03-06T01:03:34.943Z,99963.27
2019-03-06T01:06:07.786Z,99959.65
2019-03-06T01:08:42.099Z,99957.84
2019-03-06T01:11:12.331Z,99956.36
2019-03-06T01:13:43.863Z,99961.21
2019-03-06T01:16:17.570Z,99954.27
2019-03-06T01:18:50.229Z,99955.30
2019-03-06T01:21:22.798Z,99962.61
2019-03-06T01:23:55.126Z,99959.45
2019-03-06T01:26:25.842Z,99961.59
2019-03-06T01:28:58.936Z,99952.91
2019-03-06T01:31:31.262Z,99952.36
2019-03-06T01:34:28.356Z,99952.52
2019-03-06T01:37:10.176Z,99958.08
2019-03-06T01:40:09.888Z,99968.16
2019-03-06T01:43:03.111Z,99965.98
2019-03-06T01:45:33.562Z,99971.05
2019-03-06T01:48:04.214Z,99966.20
2019-03-06T01:50:36.755Z,99965.04
2019-03-06T01:53:09.387Z,99960.09
2019-03-06T01:55:40.103Z,99961.27
2019-03-06T01:58:10.966Z,99961.99
2019-03-06T02:00:44.594Z,99961.03
2019-03-06T02:03:15.336Z,99960.95
2019-03-06T02:05:45.823Z,99964.95
2019-03-06T02:08:19.656Z,99963.29
2019-03-06T02:10:52.244Z,99954.67
2019-03-06T02:13:24.520Z,99955.72
2019-03-06T02:15:55.417Z,99957.73
2019-03-06T02:18:29.944Z,99960.73
2019-03-06T02:21:00.699Z,99960.03
2019-03-06T02:23:31.194Z,99958.60
2019-03-06T02:26:03.408Z,99952.35
2019-03-06T02:28:33.836Z,99958.99
2019-03-06T02:31:04.283Z,99956.33
2019-03-06T02:33:34.714Z,99956.95
2019-03-06T02:36:09.335Z,99965.20
2019-03-06T02:38:41.886Z,99962.13
2019-03-06T02:41:12.940Z,99958.07
2019-03-06T02:43:46.396Z,99956.37
2019-03-06T02:46:16.752Z,99948.45
2019-03-06T02:48:47.173Z,99952.69
2019-03-06T02:51:17.598Z,99934.83
2019-03-06T02:53:48.307Z,99939.55
2019-03-06T02:56:18.714Z,99934.91
2019-03-06T02:58:55.227Z,99940.55
2019-03-06T03:01:51.064Z,99942.01
2019-03-06T03:04:26.618Z,99941.31
2019-03-06T03:07:00.152Z,99948.37
2019-03-06T03:09:31.133Z,99952.44
2019-03-06T03:12:01.666Z,99945.94
2019-03-06T03:14:34.408Z,99942.59
2019-03-06T03:17:05.657Z,99947.53
2019-03-06T03:19:36.248Z,99945.27
2019-03-06T03:22:07.567Z,99939.01
2019-03-06T03:24:38.645Z,99944.94
2019-03-06T03:27:10.429Z,99941.13
2019-03-06T03:29:40.896Z,99940.52
2019-03-06T03:32:11.556Z,99936.12
2019-03-06T03:34:43.270Z,99937.46
2019-03-06T03:37:13.720Z,99939.09
2019-03-06T03:39:44.297Z,99931.97
2019-03-06T03:42:15.025Z,99936.13
2019-03-06T03:44:45.828Z,99940.44
2019-03-06T03:47:16.338Z,99932.06
2019-03-06T03:49:46.725Z,99930.49
2019-03-06T03:52:17.471Z,99930.03
2019-03-06T03:54:47.936Z,99921.84
2019-03-06T03:57:18.651Z,99928.30
2019-03-06T03:59:49.031Z,99924.11
2019-03-06T04:02:19.579Z,99926.98
2019-03-06T04:04:50.206Z,99930.03
2019-03-06T04:07:20.642Z,99925.58
2019-03-06T04:09:51.074Z,99927.68
2019-03-06T04:12:21.524Z,99924.89
2019-03-06T04:14:51.897Z,99918.38
2019-03-06T04:17:22.694Z,99915.41
2019-03-06T04:19:53.515Z,99916.13
2019-03-06T04:22:23.996Z,99910.95
2019-03-06T04:24:54.929Z,99908.45
2019-03-06T04:27:25.818Z,99912.27
2019-03-06T04:29:56.263Z,99910.10
2019-03-06T04:32:27.339Z,99909.23
2019-03-06T04:34:58.228Z,99909.86
2019-03-06T04:37:28.650Z,99923.56
2019-03-06T04:39:59.236Z,99920.66
2019-03-06T04:42:31.723Z,99921.45
2019-03-06T04:45:02.498Z,99917.47
2019-03-06T04:47:32.890Z,99919.27
2019-03-06T04:50:03.493Z,99915.73
2019-03-06T04:52:33.896Z,99915.66
2019-03-06T04:55:05.857Z,99921.62
2019-03-06T04:57:38.362Z,99927.53
2019-03-06T05:00:10.765Z,99925.60
2019-03-06T05:02:41.726Z,99928.27
2019-03-06T05:05:12.888Z,99933.80
2019-03-06T05:07:46.882Z,99936.30
2019-03-06T05:10:22.677Z,99942.95
2019-03-06T05:12:53.606Z,99945.91
2019-03-06T05:15:24.274Z,99942.00
2019-03-06T05:18:02.538Z,99947.56
2019-03-06T05:20:33.043Z,99948.03
2019-03-06T05:23:03.563Z,99946.07
2019-03-06T05:25:36.074Z,99933.79
2019-03-06T05:28:06.692Z,99936.00
2019-03-06T05:30:37.502Z,99926.75
2019-03-06T05:33:11.157Z,99922.38
2019-03-06T05:36:34.883Z,99916.45
2019-03-06T05:39:13.728Z,99916.91
2019-03-06T05:41:44.199Z,99920.20
2019-03-06T05:44:14.730Z,99916.44
2019-03-06T05:46:46.284Z,99913.62
2019-03-06T05:49:17.096Z,99910.50
2019-03-06T05:51:47.881Z,99900.26
2019-03-06T05:54:18.788Z,99905.27
2019-03-06T05:56:55.481Z,99904.88
2019-03-06T05:59:26.380Z,99901.88
2019-03-06T06:01:57.072Z,99895.09
2019-03-06T06:04:34.110Z,99896.18
2019-03-06T06:07:07.122Z,99894.61
2019-03-06T06:09:37.560Z,99890.30
2019-03-06T06:12:12.533Z,99886.55
2019-03-06T06:14:43.109Z,99887.80
2019-03-06T06:17:16.268Z,99894.11
2019-03-06T06:19:46.731Z,99885.59
2019-03-06T06:22:24.836Z,99886.52
2019-03-06T06:24:55.439Z,99887.31
2019-03-06T06:27:25.946Z,99890.19
2019-03-06T06:30:02.661Z,99880.39
2019-03-06T06:32:41.159Z,99877.72
2019-03-06T06:35:13.865Z,99884.77
2019-03-06T06:37:44.670Z,99885.36
2019-03-06T06:40:16.892Z,99885.50
2019-03-06T06:42:47.733Z,99886.42
2019-03-06T06:45:49.698Z,99872.15
2019-03-06T06:48:26.059Z,99857.44
2019-03-06T06:51:48.091Z,99852.58
2019-03-06T06:54:58.138Z,99846.30
2019-03-06T06:58:31.773Z,99845.05
2019-03-06T07:02:13.021Z,99846.09
2019-03-06T07:05:40.435Z,99849.91
2019-03-06T07:08:38.366Z,99854.92
2019-03-06T07:11:39.446Z,99846.26
2019-03-06T07:14:32.161Z,99849.59
2019-03-06T07:17:33.822Z,99838.55
2019-03-06T07:20:23.335Z,99848.72
2019-03-06T07:23:16.881Z,99851.52
2019-03-06T07:26:21.638Z,99842.02
2019-03-06T07:29:05.919Z,99842.19
2019-03-06T07:31:44.820Z,99842.13
2019-03-06T07:34:42.927Z,99836.16
2019-03-06T07:37:34.020Z,99838.38
2019-03-06T07:40:16.242Z,99829.59
2019-03-06T07:42:57.450Z,99823.24
2019-03-06T07:45:59.713Z,99821.58
2019-03-06T07:49:01.540Z,99815.70
2019-03-06T07:52:05.119Z,99812.84
2019-03-06T07:55:01.307Z,99796.02
2019-03-06T07:58:30.394Z,99791.98
2019-03-06T08:01:01.058Z,99781.84
2019-03-06T08:03:43.591Z,99785.42
2019-03-06T08:06:14.172Z,99786.22
2019-03-06T08:08:45.284Z,99783.91
2019-03-06T08:11:23.873Z,99773.88
2019-03-06T08:14:32.910Z,99770.91
2019-03-06T08:17:28.871Z,99763.92
2019-03-06T08:20:17.453Z,99767.64
2019-03-06T08:23:21.866Z,99756.48
2019-03-06T08:25:52.833Z,99753.91
2019-03-06T08:28:27.813Z,99753.59
2019-03-06T08:31:10.772Z,99757.53
2019-03-06T08:33:41.242Z,99757.73
2019-03-06T08:36:11.975Z,99760.88
2019-03-06T08:38:42.832Z,99757.77
2019-03-06T08:41:14.557Z,99751.51
2019-03-06T08:43:46.351Z,99748.45
2019-03-06T08:46:38.475Z,99746.78
2019-03-06T08:49:29.913Z,99732.28
2019-03-06T08:52:07.998Z,99736.36
2019-03-06T08:54:58.293Z,99734.59
2019-03-06T08:57:40.307Z,99730.44
2019-03-06T09:00:45.729Z,99729.67
2019-03-06T09:03:24.556Z,99722.95
2019-03-06T09:06:33.677Z,99721.47
2019-03-06T09:09:34.846Z,99716.78
2019-03-06T09:12:30.530Z,99710.27
2019-03-06T09:15:19.925Z,99706.47
2019-03-06T09:17:58.755Z,99714.05
2019-03-06T09:20:57.202Z,99709.02
2019-03-06T09:23:55.603Z,99716.98
2019-03-06T09:26:36.390Z,99717.48
2019-03-06T09:29:20.602Z,99718.78
2019-03-06T09:32:08.892Z,99714.05
2019-03-06T09:35:07.674Z,99710.39
2019-03-06T09:37:50.868Z,99709.08
2019-03-06T09:40:46.496Z,99703.13
2019-03-06T09:43:30.948Z,99706.63
2019-03-06T09:46:20.593Z,99691.11
2019-03-06T09:49:11.848Z,99683.73
2019-03-06T09:52:05.128Z,99685.80
2019-03-06T09:55:07.516Z,99672.95
2019-03-06T09:58:12.465Z,99667.06
2019-03-06T10:01:10.215Z,99660.45
2019-03-06T10:04:07.259Z,99665.73
2019-03-06T10:06:58.780Z,99655.52
2019-03-06T10:09:39.923Z,99648.95
2019-03-06T10:12:34.674Z,99643.45
2019-03-06T10:15:13.618Z,99648.14
2019-03-06T10:18:09.095Z,99643.34
2019-03-06T10:20:41.068Z,99642.36
2019-03-06T10:23:17.134Z,99643.62
2019-03-06T10:25:50.421Z,99631.71
2019-03-06T10:28:27.811Z,99639.64
2019-03-06T10:31:02.324Z,99633.86
2019-03-06T10:33:40.950Z,99628.70
2019-03-06T10:36:13.879Z,99630.00
2019-03-06T10:38:44.623Z,99617.48
2019-03-06T10:41:34.615Z,99623.83
2019-03-06T10:44:07.632Z,99624.80
2019-03-06T10:46:38.440Z,99628.71
2019-03-06T10:49:15.573Z,99634.20
2019-03-06T10:51:49.458Z,99636.64
2019-03-06T10:54:24.451Z,99643.98
2019-03-06T10:56:55.519Z,99640.30
2019-03-06T10:59:26.188Z,99636.90
2019-03-06T11:02:05.992Z,99629.88
2019-03-06T11:07:19.720Z,99629.97
2019-03-06T11:09:50.954Z,99624.61
2019-03-06T11:12:21.894Z,99617.28
2019-03-06T11:14:52.458Z,99615.05
2019-03-06T11:17:23.085Z,99611.17
2019-03-06T11:19:53.891Z,99607.00
2019-03-06T11:22:24.422Z,99596.13
2019-03-06T11:24:54.973Z,99584.70
2019-03-06T11:27:25.688Z,99582.27
2019-03-06T11:29:56.362Z,99581.02
2019-03-06T11:32:30.149Z,99575.89
2019-03-06T11:35:15.087Z,99573.98
2019-03-06T11:37:46.849Z,99562.03
2019-03-06T11:40:17.829Z,99561.05
2019-03-06T11:42:49.867Z,99558.81
2019-03-06T11:45:21.128Z,99557.53
2019-03-06T11:47:53.925Z,99560.03
2019-03-06T11:50:26.392Z,99557.50
2019-03-06T11:52:56.906Z,99551.62
2019-03-06T11:55:28.196Z,99549.38
2019-03-06T11:58:00.123Z,99536.53
2019-03-06T12:00:43.760Z,99530.79
2019-03-06T12:03:16.647Z,99527.98
2019-03-06T12:05:49.728Z,99501.69
2019-03-06T12:08:22.751Z,99499.89
2019-03-06T12:10:54.008Z,99499.89
2019-03-06T12:13:28.282Z,99488.38
2019-03-06T12:15:59.000Z,99478.77
2019-03-06T12:18:30.263Z,99483.67
2019-03-06T12:21:01.060Z,99485.95
2019-03-06T12:23:31.792Z,99471.79
2019-03-06T12:26:11.025Z,99466.05
2019-03-06T12:28:41.910Z,99466.00
2019-03-06T12:31:13.571Z,99461.61
2019-03-06T12:33:47.155Z,99457.45
2019-03-06T12:36:17.792Z,99458.52
2019-03-06T12:38:49.254Z,99451.71
2019-03-06T12:41:20.691Z,99442.77
2019-03-06T12:43:51.213Z,99444.68
2019-03-06T12:46:26.237Z,99434.84
2019-03-06T12:49:12.258Z,99421.27
2019-03-06T12:51:43.060Z,99415.03
2019-03-06T12:54:13.811Z,99402.44
2019-03-06T12:56:49.352Z,99396.68
2019-03-06T12:59:21.135Z,99386.67
2019-03-06T13:01:57.496Z,99376.22
2019-03-06T13:04:30.400Z,99374.18
2019-03-06T13:07:00.987Z,99370.19
2019-03-06T13:09:31.519Z,99366.58
2019-03-06T13:12:02.650Z,99355.81
2019-03-06T13:14:33.179Z,99344.88
2019-03-06T13:17:03.730Z,99353.92
2019-03-06T13:19:34.133Z,99335.80
2019-03-06T13:22:11.074Z,99333.75
2019-03-06T13:24:39.645Z,99326.15
2019-03-06T13:27:17.428Z,99314.02
2019-03-06T13:29:49.906Z,99308.17
2019-03-06T13:32:22.224Z,99300.68
2019-03-06T13:35:00.452Z,99298.65
2019-03-06T13:37:32.530Z,99300.47
2019-03-06T13:40:05.127Z,99282.21
2019-03-06T13:42:35.729Z,99275.67
2019-03-06T13:45:06.786Z,99268.52
2019-03-06T13:47:37.775Z,99265.48
2019-03-06T13:50:08.293Z,99258.26
2019-03-06T13:52:39.370Z,99255.78
2019-03-06T13:55:10.434Z,99256.30
2019-03-06T13:57:41.452Z,99238.17
2019-03-06T14:00:14.937Z,99230.27
2019-03-06T14:02:45.492Z,99233.72
2019-03-06T14:05:17.467Z,99234.23
2019-03-06T14:07:55.981Z,99240.02
2019-03-06T14:10:23.769Z,99216.83
2019-03-06T14:13:00.229Z,99208.92
2019-03-06T14:15:31.954Z,99202.67
2019-03-06T14:18:03.016Z,99192.82
2019-03-06T14:20:33.631Z,99192.38
2019-03-06T14:23:04.483Z,99187.41
2019-03-06T14:25:36.005Z,99180.86
2019-03-06T14:28:06.566Z,99181.02
2019-03-06T14:30:54.627Z,99181.69
2019-03-06T14:33:26.024Z,99183.95
2019-03-06T14:35:57.255Z,99179.30
2019-03-06T14:38:28.233Z,99177.52
2019-03-06T14:41:09.702Z,99173.91
2019-03-06T14:44:05.856Z,99180.81
2019-03-06T14:46:36.998Z,99182.92
2019-03-06T14:49:09.978Z,99180.66
2019-03-06T14:51:42.819Z,99171.36
2019-03-06T14:54:13.701Z,99173.97
2019-03-06T14:56:48.925Z,99166.39
2019-03-06T14:59:23.109Z,99162.33
2019-03-06T15:01:54.177Z,99155.22
2019-03-06T15:04:24.889Z,99145.32
2019-03-06T15:06:56.516Z,99143.94
2019-03-06T15:09:29.238Z,99131.06
2019-03-06T15:12:02.142Z,99132.81
2019-03-06T15:14:36.754Z,99125.03
2019-03-06T15:17:07.993Z,99120.82
2019-03-06T15:19:39.292Z,99119.63
2019-03-06T15:22:11.939Z,99114.42
2019-03-06T15:24:42.720Z,99097.58
2019-03-06T15:27:14.696Z,99088.68
2019-03-06T15:29:45.839Z,99077.36
2019-03-06T15:32:16.602Z,99073.91
2019-03-06T15:34:47.060Z,99072.91
2019-03-06T15:37:20.583Z,99073.66
2019-03-06T15:39:55.764Z,99076.69
2019-03-06T15:42:30.937Z,99073.20
2019-03-06T15:45:01.405Z,99071.64
2019-03-06T15:47:36.211Z,99071.48
2019-03-06T15:50:12.529Z,99064.61
2019-03-06T15:52:44.108Z,99066.39
2019-03-06T15:55:37.104Z,99057.41
2019-03-06T15:58:07.855Z,99055.17
2019-03-06T16:00:45.773Z,99049.14
2019-03-06T16:03:11.228Z,99051.88
2019-03-06T16:05:43.447Z,99045.44
2019-03-06T16:08:17.406Z,99041.03
2019-03-06T16:10:48.292Z,99037.91
2019-03-06T16:13:19.076Z,99038.56
2019-03-06T16:15:49.657Z,99032.09
2019-03-06T16:18:20.468Z,99037.38
2019-03-06T16:20:51.190Z,99039.98
2019-03-06T16:23:22.349Z,99038.08
2019-03-06T16:25:53.415Z,99033.37
2019-03-06T16:28:29.963Z,99032.52
2019-03-06T16:31:00.940Z,99027.16
2019-03-06T16:33:31.575Z,99033.35
2019-03-06T16:36:02.196Z,99023.67
2019-03-06T16:38:35.794Z,99025.05
2019-03-06T16:41:06.396Z,99015.89
2019-03-06T16:43:38.825Z,99015.20
2019-03-06T16:46:09.346Z,99006.67
2019-03-06T16:48:39.950Z,99015.45
2019-03-06T16:51:11.207Z,99006.91
2019-03-06T16:53:41.968Z,99004.28
2019-03-06T16:56:12.742Z,99003.75
2019-03-06T16:58:43.293Z,98999.26
2019-03-06T17:01:13.736Z,99001.31
2019-03-06T17:03:44.188Z,98993.64
2019-03-06T17:06:14.672Z,98994.14
2019-03-06T17:08:45.114Z,98990.31
2019-03-06T17:11:15.602Z,98991.19
2019-03-06T17:13:48.216Z,98974.94
2019-03-06T17:16:22.398Z,98975.41
2019-03-06T17:18:52.821Z,98968.75
2019-03-06T17:21:23.499Z,98966.38
2019-03-06T17:23:53.886Z,98955.91
2019-03-06T17:26:26.998Z,98953.48
2019-03-06T17:29:12.698Z,98956.70
2019-03-06T17:31:44.758Z,98953.38
2019-03-06T17:34:15.662Z,98947.77
2019-03-06T17:36:46.932Z,98945.02
2019-03-06T17:39:18.071Z,98944.85
2019-03-06T17:41:50.114Z,98945.95
2019-03-06T17:44:21.300Z,98941.79
2019-03-06T17:46:52.123Z,98935.33
2019-03-06T17:49:22.597Z,98932.25
2019-03-06T17:51:53.624Z,98930.44
2019-03-06T17:54:24.050Z,98930.55
2019-03-06T17:56:54.830Z,98929.18
2019-03-06T17:59:25.370Z,98926.86
2019-03-06T18:01:55.787Z,98925.21
2019-03-06T18:04:28.917Z,98924.84
2019-03-06T18:06:59.202Z,98920.28
2019-03-06T18:09:30.271Z,98914.64
2019-03-06T18:12:28.562Z,98918.28
2019-03-06T18:15:00.354Z,98916.11
2019-03-06T18:17:31.468Z,98918.86
2019-03-06T18:20:01.955Z,98912.85
2019-03-06T18:22:32.822Z,98909.48
2019-03-06T18:25:03.531Z,98897.49
2019-03-06T18:27:34.446Z,98902.53
2019-03-06T18:30:05.286Z,98904.44
2019-03-06T18:32:36.326Z,98902.10
2019-03-06T18:35:07.876Z,98911.33
2019-03-06T18:37:38.321Z,98899.69
2019-03-06T18:40:11.756Z,98898.01
2019-03-06T18:42:42.700Z,98892.44
2019-03-06T18:45:16.956Z,98888.89
2019-03-06T18:47:47.618Z,98884.27
2019-03-06T18:50:19.139Z,98886.99
2019-03-06T18:52:50.194Z,98883.89
2019-03-06T18:55:22.912Z,98882.83
2019-03-06T18:58:12.971Z,98884.78
2019-03-06T19:00:50.420Z,98884.47
2019-03-06T19:03:23.340Z,98877.81
2019-03-06T19:05:56.333Z,98877.02
2019-03-06T19:08:31.535Z,98876.12
2019-03-06T19:11:01.391Z,98867.09
2019-03-06T19:13:31.874Z,98864.00
2019-03-06T19:16:02.234Z,98864.69
2019-03-06T19:18:38.249Z,98857.34
2019-03-06T19:21:08.737Z,98852.35
2019-03-06T19:23:39.303Z,98847.17
2019-03-06T19:26:09.927Z,98845.38
2019-03-06T19:28:40.619Z,98838.48
2019-03-06T19:31:11.039Z,98838.73
2019-03-06T19:33:42.552Z,98836.11
2019-03-06T19:36:14.605Z,98834.45
2019-03-06T19:38:45.446Z,98830.39
2019-03-06T19:41:15.899Z,98827.64
2019-03-06T19:43:47.757Z,98824.11
2019-03-06T19:46:18.490Z,98821.00
2019-03-06T19:48:48.903Z,98816.53
2019-03-06T19:51:19.373Z,98814.28
2019-03-06T19:53:57.553Z,98811.13
2019-03-06T19:56:28.041Z,98803.67
2019-03-06T19:58:58.855Z,98805.97
2019-03-06T20:01:29.589Z,98797.91
2019-03-06T20:04:36.949Z,98806.02
2019-03-06T20:06:46.946Z,98809.41
2019-03-06T20:09:31.955Z,98803.96
2019-03-06T20:12:13.764Z,98800.60
2019-03-06T20:15:24.779Z,98800.54
2019-03-06T20:17:59.256Z,98799.63
2019-03-06T20:20:35.768Z,98802.02
2019-03-06T20:23:12.844Z,98795.64
2019-03-06T20:25:53.507Z,98792.55
2019-03-06T20:28:29.308Z,98789.28
2019-03-06T20:31:09.559Z,98791.63
2019-03-06T20:34:11.914Z,98795.34
2019-03-06T20:36:42.339Z,98793.75
2019-03-06T20:39:17.784Z,98789.25
2019-03-06T20:41:49.624Z,98792.94
2019-03-06T20:44:23.135Z,98794.57
2019-03-06T20:46:56.728Z,98785.88
2019-03-06T20:49:27.420Z,98784.95
2019-03-06T20:51:59.213Z,98790.88
2019-03-06T20:54:31.322Z,98794.80
2019-03-06T20:57:01.935Z,98792.66
2019-03-06T20:59:33.971Z,98800.00
2019-03-06T21:02:05.656Z,98802.08
2019-03-06T21:04:36.190Z,98783.48
2019-03-06T21:07:06.784Z,98757.93
2019-03-06T21:09:38.148Z,98791.42
2019-03-06T21:12:11.427Z,98796.31
2019-03-06T21:14:42.009Z,98775.69
2019-03-06T21:17:12.891Z,98749.53
2019-03-06T21:19:43.229Z,98755.20
2019-03-06T21:22:15.909Z,98756.80
2019-03-06T21:24:46.359Z,98759.41
2019-03-06T21:27:17.890Z,98754.33
2019-03-06T21:29:48.472Z,98752.36
2019-03-06T21:32:18.943Z,98753.95
2019-03-06T21:34:51.445Z,98741.25
2019-03-06T21:37:22.489Z,98746.68
2019-03-06T21:39:53.330Z,98745.77
2019-03-06T21:42:23.906Z,98753.69
2019-03-06T21:44:54.487Z,98749.57
2019-03-06T21:47:26.374Z,98748.42
2019-03-06T21:49:56.855Z,98748.85
2019-03-06T21:52:27.393Z,98746.88
2019-03-06T21:55:03.327Z,98745.61
2019-03-06T21:57:39.841Z,98747.20
2019-03-06T22:00:19.548Z,98747.83
2019-03-06T22:02:58.572Z,98742.13
2019-03-06T22:05:36.724Z,98728.47
2019-03-06T22:08:37.849Z,98723.45
2019-03-06T22:11:10.743Z,98714.91
2019-03-06T22:13:53.127Z,98704.67
2019-03-06T22:16:29.659Z,98708.79
2019-03-06T22:19:01.032Z,98699.56
2019-03-06T22:21:36.813Z,98686.58
2019-03-06T22:24:07.400Z,98683.73
2019-03-06T22:26:41.950Z,98680.18
2019-03-06T22:29:26.064Z,98681.08
2019-03-06T22:32:06.639Z,98677.13
2019-03-06T22:34:43.609Z,98673.16
2019-03-06T22:37:18.909Z,98677.13
2019-03-06T22:40:04.771Z,98677.39
2019-03-06T22:42:36.248Z,98680.92
2019-03-06T22:45:08.406Z,98682.87
2019-03-06T22:47:39.617Z,98666.52
2019-03-06T22:50:15.901Z,98669.05
2019-03-06T22:52:46.513Z,98668.16
2019-03-06T22:55:18.685Z,98667.69
2019-03-06T22:57:49.953Z,98659.41
2019-03-06T23:00:53.957Z,98662.78
2019-03-06T23:03:26.843Z,98655.66
2019-03-06T23:05:57.389Z,98654.27
2019-03-06T23:08:47.336Z,98651.11
2019-03-06T23:11:18.359Z,98653.56
2019-03-06T23:13:53.140Z,98647.47
2019-03-06T23:16:38.005Z,98649.20
2019-03-06T23:19:09.199Z,98641.77
2019-03-06T23:21:41.063Z,98641.77
2019-03-06T23:24:11.998Z,98638.28
2019-03-06T23:26:44.401Z,98641.61
2019-03-06T23:29:15.360Z,98641.30
2019-03-06T23:31:47.969Z,98641.92
2019-03-06T23:34:22.908Z,98633.70
2019-03-06T23:36:53.597Z,98627.72
2019-03-06T23:39:24.227Z,98626.52
2019-03-06T23:41:57.902Z,98620.39
2019-03-06T23:44:28.422Z,98612.91
2019-03-06T23:47:02.229Z,98615.36
2019-03-06T23:49:33.488Z,98613.37
2019-03-06T23:52:16.371Z,98611.68
2019-03-06T23:54:57.415Z,98618.84
2019-03-06T23:57:28.452Z,98618.28
2019-03-06T23:59:59.560Z,98622.72
